Flight Track Log - Related Links

Times and Time Zones

All times are in EDT time to prevent confusion due to time zone crossing. See the KAP550 flight status page for this flight to view local times or setup timezone preferences in your user account.


Time Position Orientation Groundspeed Altitude Reporting Facility
EDT Latitude Longitude Course Direction KTS MPH feet Rate Location/Type
Mon 02:22:14 PM 42.7272 -73.8561 342° North 134 154 2,800  Level Boston Center
Mon 02:24:15 PM 42.7997 -73.8889 342° North 145 167 4,700 818 Climbing Boston Center
Mon 02:25:10 PM 42.8350 -73.9011 346° North 148 170 5,200 548 Climbing Boston Center
Mon 02:27:00 PM 42.9009 -73.8557 27° Northeast  Level FlightAware Approximate
Mon 02:28:38 PM 42.9636 -73.9522 27° Northeast 160 184 7,100  Level Boston Center
Mon 02:30:00 PM 43.0160 -73.9752 North  Level Estimated
Mon 02:30:38 PM 43.0422 -73.9828 North 148 170 8,200  Level Boston Center
Mon 02:31:38 PM 43.0836 -74.0064 337° Northwest 148 170 8,500 150 Climbing Boston Center
Mon 02:32:38 PM 43.1250 -74.0217 345° North 159 183 8,500  Level Boston Center
Mon 02:33:38 PM 43.1747 -74.0458 340° North 169 194 8,500  Level Boston Center
Mon 02:34:38 PM 43.2161 -74.0639 342° North 169 194 8,500  Level Boston Center
Mon 02:35:38 PM 43.2639 -74.0853 342° North 164 189 8,500  Level Boston Center
Mon 02:36:38 PM 43.3033 -74.1033 342° North 164 189 8,500  Level Boston Center
Mon 02:37:38 PM 43.3486 -74.1247 341° North 164 189 8,500  Level Boston Center
Mon 02:38:38 PM 43.3942 -74.1458 341° North 164 189 8,500  Level Boston Center
Mon 02:39:38 PM 43.4378 -74.1642 343° North 170 196 8,500  Level Boston Center
Mon 02:41:00 PM 43.4923 -74.1881 342° North  Level FlightAware Approximate
Mon 02:41:38 PM 43.5247 -74.2011 342° North 164 189 8,500  Level Boston Center
Mon 02:43:00 PM 43.5793 -74.2251 342° North  Level FlightAware Approximate
Mon 02:43:38 PM 43.6136 -74.2411 342° North 164 189 8,500  Level Boston Center
Mon 02:44:38 PM 43.6592 -74.2625 341° North 164 189 8,500  Level Boston Center
Mon 02:45:38 PM 43.7006 -74.2781 345° North 164 189 8,500  Level Boston Center
Mon 02:46:38 PM 43.7461 -74.3025 339° North 164 189 8,500  Level Boston Center
Mon 02:48:00 PM 43.8007 -74.3264 342° North  Level FlightAware Approximate
Mon 02:51:38 PM 43.9675 -74.4017 342° North 164 189 8,500  Level Boston Center
Mon 02:52:38 PM 44.0108 -74.4203 343° North 164 189 8,500  Level Boston Center
Mon 02:53:38 PM 44.0544 -74.4392 343° North 164 189 8,500  Level Boston Center
Mon 02:54:38 PM 44.0978 -74.4578 343° North 164 189 8,500  Level Boston Center
Mon 02:55:00 PM 44.0801 -74.4498 342° North  Level FlightAware Approximate
Mon 02:55:38 PM 44.1453 -74.4828 339° North 164 189 8,500  Level Boston Center
Mon 02:56:00 PM 44.1200 -74.4675 342° North  Level FlightAware Approximate
Mon 02:57:00 PM 44.1997 -74.5074 342° North  Level Estimated
Mon 02:57:00 PM 44.1599 -74.4852 342° North  Level FlightAware Approximate
Mon 03:00:38 PM 44.3706 -74.5806 342° North 164 189 8,500  Level Boston Center
Mon 03:02:00 PM 44.4258 -74.6068 341° North  Level FlightAware Approximate
Mon 03:02:38 PM 44.4575 -74.6186 341° North 164 189 8,500  Level Boston Center
Mon 03:04:00 PM 44.4785 -74.6342 342° North  Level Estimated
Mon 03:04:00 PM 44.5121 -74.6476 339° North  Level FlightAware Approximate
Mon 03:04:50 PM 44.5564 -74.6658 339° North 169 194 7,800  Level Boston Center
Mon 03:05:00 PM 44.5183 -74.6524 342° North  Level Estimated
Mon 03:06:00 PM 44.5589 -74.6712 342° North  Level FlightAware Approximate
Mon 03:06:00 PM 44.6035 -74.6885 341° North  Level FlightAware Approximate
Mon 03:06:50 PM 44.6619 -74.7136 341° North 188 216 6,500  Level Boston Center
Mon 03:08:00 PM 44.7088 -74.7373 340° North  Level FlightAware Approximate
Mon 03:15:00 PM 44.9333 -74.8333 345° North  Level FlightAware Approximate
Mon 03:16:00 PM 44.9362 -74.8451 345° North  Level Estimated
Mon 03:17:00 PM 44.9362 -74.8451 345° North  Level Estimated
Mon 03:18:00 PM 44.9362 -74.8451 345° North  Level Estimated
Mon 03:19:00 PM 44.9362 -74.8451 345° North  Level Estimated
Mon 03:20:00 PM 44.9362 -74.8451 345° North  Level Estimated
Mon 03:21:00 PM 44.9362 -74.8451 345° North  Level Estimated
Mon 03:22:00 PM 44.9362 -74.8451 345° North  Level Estimated
Mon 03:23:00 PM 44.9362 -74.8451 345° North  Level Estimated
Mon 03:24:00 PM 44.9362 -74.8451 345° North  Level Estimated
Mon 03:25:00 PM 44.9362 -74.8451 345° North  Level Estimated
Mon 03:26:00 PM 44.9362 -74.8451 345° North  Level Estimated
Mon 03:27:00 PM 44.9362 -74.8451 345° North  Level Estimated
Mon 03:28:00 PM 44.9362 -74.8451 345° North  Level Estimated
Mon 03:29:00 PM 44.9362 -74.8451 345° North  Level Estimated
Mon 03:30:00 PM 44.9362 -74.8451 345° North  Level Estimated
Mon 03:31:00 PM 44.9362 -74.8451 345° North  Level Estimated
Mon 03:32:00 PM 44.9362 -74.8451 345° North  Level Estimated
Mon 03:33:00 PM 44.9362 -74.8451 345° North  Level Estimated
Mon 03:34:00 PM 44.9362 -74.8451 345° North  Level Estimated
Mon 03:35:00 PM 44.9362 -74.8451 345° North  Level Estimated

Login

Don't have an account? Register now (free) for customized features, flight alerts, and more!